Pagrindinis puslapis
METAR-TAF:

METAR-TAF

Oro uostai :

Doha, Kataras

platuma: 25-16-23N, ilguma: 51-36-29E, Aukštis: 4 m

Dabartinis oras

Ataskaita buvo paskelbta 1 valandą ir 15 minutes, ne 09:00 UTC
Vėjas 9 kt iš Rytų/Šiaurės Rytų
Temperatūra 34°C
Drėgmė 53%
Slėgis 1013 hPa
Matomumas 10 km arba daugiau
Mažai debesys ne aukštis 4000 ft

METAR: OTHH 140900Z 07009KT 9999 FEW040 34/23 Q1013 NOSIG

Laikas: 13:15 (10:15 UTC)

Prognozė

Ataskaita buvo paskelbta 5 valandos ir 5 minutes, ne 05:10 UTC
Prognozė galioja nuo 14 metu 06 UTC su 15 metu 12 UTC
Vėjas 10 kt iš Pietryčių
Matomumas: 8000 m
Tapsmas
nuo 14 metu 11 UTC su 14 metu 13 UTC
Vėjas 10 kt iš Rytų/Šiaurės Rytų
Mažai debesys ne aukštis 3000 ft
Išsisklaidę debesys ne aukštis 10000 ft
Tapsmas
nuo 15 metu 03 UTC su 15 metu 05 UTC
Vėjas 11 kt iš Pietų/Pietryčių

TAF: OTHH 140510Z 1406/1512 14010KT 8000 NSC BECMG 1411/1413 06010KT FEW030 SCT100 BECMG 1503/1505 15011KT

Orai ataskaitas ir orų prognozės (METAR, TAF).

turimą stotys yra geltonos ir raudonos taškus žemėlapyje.

Perkelti pele per norėdami pamatyti stoties vardą.

Tada spustelėkite, norėdami matyti oro stebėjimo ir prognozės.

Norėdami pakeisti žemėlapį: spustelėkite ant žalios mygtukų su juodo kryžiaus žemyn,; žalią mygtuką su brūkšneliu, jei norite nutolinti; arba žalių rodyklių gretimoms žemėlapius.


METAR-TAF: